Time;durP1;ratioP1;P1;durP2;ratioP2;P2;SDS_P1;SDS_P2;PMS_P1;PMS_P2;Temp;Humidity;BMP_temperature;BMP_pressure;BME280_temperature;BME280_humidity;BME280_pressure;Samples;Min_cycle;Max_cycle;Signal;HPM_P1;HPM_P2
2022/12/06 00:00:54;;;;;;;20.48;9.07;;;1.40;99.90;;;;;;4953737;28;20054;-80
2022/12/06 00:03:20;;;;;;;15.32;9.57;;;1.40;99.90;;;;;;4960980;28;20432;-80
2022/12/06 00:05:45;;;;;;;14.00;8.60;;;1.30;99.90;;;;;;4960138;28;20038;-80
2022/12/06 00:08:11;;;;;;;18.75;10.70;;;1.50;99.90;;;;;;4956475;28;20027;-80
2022/12/06 00:10:36;;;;;;;13.77;8.02;;;1.60;99.90;;;;;;4975257;28;20097;-81
2022/12/06 00:13:03;;;;;;;22.55;10.95;;;1.50;99.90;;;;;;4973847;28;20040;-80
2022/12/06 00:15:29;;;;;;;15.30;7.80;;;1.50;99.90;;;;;;4961141;28;20062;-80
2022/12/06 00:17:54;;;;;;;21.13;9.25;;;1.50;99.90;;;;;;4981443;28;20055;-80
2022/12/06 00:20:20;;;;;;;22.73;12.70;;;1.50;99.90;;;;;;4967911;28;21797;-81
2022/12/06 00:22:46;;;;;;;19.58;10.82;;;1.50;99.90;;;;;;4944702;28;20416;-80
2022/12/06 00:25:11;;;;;;;25.60;12.43;;;1.50;99.90;;;;;;4993898;28;20062;-81
2022/12/06 00:27:37;;;;;;;11.80;7.80;;;1.30;99.90;;;;;;4966481;28;20050;-81
2022/12/06 00:30:03;;;;;;;20.50;10.05;;;1.30;99.90;;;;;;4958107;28;20136;-81
2022/12/06 00:32:28;;;;;;;20.17;10.02;;;1.20;99.90;;;;;;4994948;28;20027;-81
2022/12/06 00:34:54;;;;;;;21.65;10.52;;;1.30;99.90;;;;;;4953611;28;20093;-81
2022/12/06 00:37:19;;;;;;;50.10;14.77;;;1.40;99.90;;;;;;4991474;28;20066;-81
2022/12/06 00:39:45;;;;;;;21.60;9.50;;;1.30;99.90;;;;;;4948154;28;20487;-81
2022/12/06 00:42:18;;;;;;;16.95;9.93;;;1.30;99.90;;;;;;4981138;28;20482;-81
2022/12/06 00:44:44;;;;;;;21.02;9.52;;;1.40;99.90;;;;;;4974140;28;20483;-81
2022/12/06 00:47:09;;;;;;;23.13;10.85;;;1.40;99.90;;;;;;4978072;28;20039;-81
2022/12/06 00:49:35;;;;;;;15.02;9.00;;;1.40;99.90;;;;;;4930159;28;20050;-80
2022/12/06 00:52:00;;;;;;;30.45;13.10;;;1.40;99.90;;;;;;4990711;28;20034;-81
2022/12/06 00:54:26;;;;;;;17.33;8.50;;;1.30;99.90;;;;;;4962133;28;20033;-80
2022/12/06 00:56:51;;;;;;;21.00;10.40;;;1.30;99.90;;;;;;4923607;28;20031;-80
2022/12/06 00:59:17;;;;;;;19.10;8.68;;;1.40;99.90;;;;;;4978259;28;20644;-80
2022/12/06 01:01:43;;;;;;;22.70;11.68;;;1.30;99.90;;;;;;4908604;28;20253;-80
2022/12/06 01:04:08;;;;;;;10.50;5.75;;;1.30;99.90;;;;;;4997499;28;20027;-80
2022/12/06 01:06:34;;;;;;;20.45;10.63;;;1.40;99.90;;;;;;4962780;28;20096;-80
2022/12/06 01:09:02;;;;;;;16.40;8.90;;;1.40;99.90;;;;;;4957058;28;20062;-81
2022/12/06 01:11:28;;;;;;;19.42;9.75;;;1.30;99.90;;;;;;4964960;28;20062;-81
2022/12/06 01:13:53;;;;;;;17.30;9.20;;;1.30;99.90;;;;;;4946807;28;20514;-81
2022/12/06 01:16:21;;;;;;;15.85;8.82;;;1.30;99.90;;;;;;4961939;28;20723;-81
2022/12/06 01:18:50;;;;;;;13.77;7.53;;;1.50;99.90;;;;;;4931381;28;20027;-81
2022/12/06 01:21:17;;;;;;;16.95;9.07;;;1.40;99.90;;;;;;4986384;28;20067;-81
2022/12/06 01:23:43;;;;;;;17.33;9.18;;;1.40;99.90;;;;;;4964826;28;20039;-80
2022/12/06 01:26:17;;;;;;;17.42;9.07;;;1.60;99.90;;;;;;4986016;28;20784;-81
2022/12/06 01:28:43;;;;;;;18.92;10.27;;;1.60;99.90;;;;;;4932382;28;20026;-81
2022/12/06 01:31:09;;;;;;;17.13;9.15;;;1.50;99.90;;;;;;4961551;28;20046;-82
2022/12/06 01:33:34;;;;;;;18.55;9.88;;;1.60;99.90;;;;;;4936175;28;20065;-81
2022/12/06 01:36:00;;;;;;;24.67;12.35;;;1.60;99.90;;;;;;4937080;28;20089;-81
2022/12/06 01:38:25;;;;;;;19.58;10.50;;;1.70;99.90;;;;;;4936388;28;20030;-81
2022/12/06 01:40:51;;;;;;;24.88;13.10;;;1.60;99.90;;;;;;5000326;28;20121;-81
2022/12/06 01:43:36;;;;;;;15.38;9.30;;;1.50;99.90;;;;;;4954351;28;20399;-81
2022/12/06 01:46:11;;;;;;;19.00;10.97;;;1.60;99.90;;;;;;4952170;28;20105;-81
2022/12/06 01:48:37;;;;;;;26.33;12.55;;;1.50;99.90;;;;;;4983293;28;20607;-81
2022/12/06 01:51:02;;;;;;;21.48;11.13;;;1.50;99.90;;;;;;4965570;28;20034;-81
2022/12/06 01:53:28;;;;;;;17.08;8.82;;;1.50;99.90;;;;;;4970815;28;20038;-81
2022/12/06 01:55:53;;;;;;;21.48;11.30;;;1.60;99.90;;;;;;4963583;28;20238;-81
2022/12/06 01:58:22;;;;;;;23.63;13.25;;;1.60;99.90;;;;;;4998605;28;20041;-81
2022/12/06 02:00:48;;;;;;;18.73;10.35;;;1.60;99.90;;;;;;4928484;28;20035;-81
2022/12/06 02:03:17;;;;;;;20.92;11.35;;;1.60;99.90;;;;;;4943446;28;20042;-81
2022/12/06 02:05:43;;;;;;;20.00;9.80;;;1.60;99.90;;;;;;4932297;28;20046;-81
2022/12/06 02:08:09;;;;;;;23.05;12.20;;;1.60;99.90;;;;;;4962780;28;20106;-82
2022/12/06 02:10:36;;;;;;;19.15;10.02;;;1.60;99.90;;;;;;4954738;28;20070;-82
2022/12/06 02:13:01;;;;;;;30.08;14.05;;;1.70;99.90;;;;;;4980646;28;20038;-81
2022/12/06 02:15:43;;;;;;;20.23;10.65;;;1.60;99.90;;;;;;4935136;28;20022;-81
2022/12/06 02:18:12;;;;;;;20.35;11.73;;;1.60;99.90;;;;;;4982183;28;20721;-81
2022/12/06 02:20:46;;;;;;;20.75;11.82;;;1.60;99.90;;;;;;4969443;28;20495;-83
2022/12/06 02:23:33;;;;;;;16.88;9.82;;;1.50;99.90;;;;;;4985869;28;20030;-81
2022/12/06 02:26:14;;;;;;;26.20;11.55;;;1.50;99.90;;;;;;4993650;28;20585;-81
2022/12/06 02:28:58;;;;;;;22.13;11.63;;;1.60;99.90;;;;;;4963936;28;20042;-81
2022/12/06 02:31:51;;;;;;;19.02;10.73;;;1.60;99.90;;;;;;4963217;28;20027;-81
2022/12/06 02:34:30;;;;;;;22.83;10.60;;;1.60;99.90;;;;;;4947243;28;20045;-81
2022/12/06 02:37:17;;;;;;;22.05;11.68;;;1.70;99.90;;;;;;4962962;28;20035;-81
2022/12/06 02:40:05;;;;;;;24.92;12.23;;;1.70;99.90;;;;;;4967116;28;20054;-81
2022/12/06 02:42:36;;;;;;;17.20;9.13;;;1.70;99.90;;;;;;4977634;28;20561;-82
2022/12/06 02:45:09;;;;;;;21.17;10.02;;;1.70;99.90;;;;;;4959969;28;20171;-82
2022/12/06 02:47:35;;;;;;;17.90;9.13;;;1.70;99.90;;;;;;4979131;28;20085;-81
2022/12/06 02:50:04;;;;;;;25.65;12.98;;;1.80;99.90;;;;;;4957321;28;20067;-81
2022/12/06 02:52:29;;;;;;;48.50;15.73;;;1.70;99.90;;;;;;4963355;28;20075;-81
2022/12/06 02:54:56;;;;;;;29.33;12.50;;;1.70;99.90;;;;;;4981485;28;20066;-81
2022/12/06 02:57:40;;;;;;;43.00;14.63;;;1.80;99.90;;;;;;4958051;28;20042;-82
2022/12/06 03:00:27;;;;;;;28.98;11.35;;;1.80;99.90;;;;;;4931927;28;20058;-82
2022/12/06 03:03:28;;;;;;;94.45;15.63;;;1.70;99.90;;;;;;4979292;28;20131;-82
2022/12/06 03:05:56;;;;;;;39.88;11.82;;;1.70;99.90;;;;;;4958246;28;20542;-82
2022/12/06 03:08:52;;;;;;;24.60;10.38;;;1.70;99.90;;;;;;4981572;28;20062;-82
2022/12/06 03:11:17;;;;;;;41.22;15.00;;;1.70;99.90;;;;;;4979601;28;20058;-82
2022/12/06 03:14:01;;;;;;;33.28;10.90;;;1.70;99.90;;;;;;4948207;28;20104;-82
2022/12/06 03:16:46;;;;;;;26.58;11.50;;;1.70;99.90;;;;;;4952835;28;20042;-82
2022/12/06 03:19:23;;;;;;;91.90;16.40;;;1.70;99.90;;;;;;4988111;28;20487;-82
2022/12/06 03:22:04;;;;;;;42.60;12.65;;;1.70;99.90;;;;;;4962806;28;20050;-81
2022/12/06 03:24:32;;;;;;;22.95;11.88;;;1.70;99.90;;;;;;4962802;28;20729;-82
2022/12/06 03:26:59;;;;;;;20.48;10.07;;;1.70;99.90;;;;;;4963878;28;20031;-82
2022/12/06 03:29:25;;;;;;;32.92;11.50;;;1.70;99.90;;;;;;4964001;28;20446;-82
2022/12/06 03:31:51;;;;;;;40.00;11.23;;;1.90;99.90;;;;;;4958060;28;20376;-79
2022/12/06 03:34:22;;;;;;;94.93;16.85;;;1.80;99.90;;;;;;4945518;28;20127;-79
2022/12/06 03:36:49;;;;;;;131.48;17.95;;;1.80;99.90;;;;;;4946347;28;20089;-82
2022/12/06 03:39:18;;;;;;;91.82;15.50;;;1.80;99.90;;;;;;4977269;28;20035;-82
2022/12/06 03:41:55;;;;;;;22.92;11.13;;;1.80;99.90;;;;;;4956265;28;20063;-81
2022/12/06 03:44:22;;;;;;;37.40;12.20;;;1.90;99.90;;;;;;4979406;28;20802;-82
2022/12/06 03:46:48;;;;;;;127.70;19.00;;;1.80;99.90;;;;;;4947537;28;20106;-82
2022/12/06 03:49:41;;;;;;;21.33;10.60;;;1.80;99.90;;;;;;4933437;28;20486;-82
2022/12/06 03:52:06;;;;;;;51.78;14.20;;;1.80;99.90;;;;;;4988882;28;20027;-81
2022/12/06 03:54:32;;;;;;;22.90;9.45;;;1.80;99.90;;;;;;4959614;28;20562;-82
2022/12/06 03:56:58;;;;;;;20.60;10.13;;;1.80;99.90;;;;;;4960220;28;20114;-81
2022/12/06 03:59:23;;;;;;;23.63;9.82;;;1.80;99.90;;;;;;4993840;28;20508;-81
2022/12/06 04:01:49;;;;;;;62.85;13.55;;;1.80;99.90;;;;;;4929281;28;20035;-81
2022/12/06 04:04:14;;;;;;;63.40;15.27;;;1.90;99.90;;;;;;4945670;28;20118;-81
2022/12/06 04:06:40;;;;;;;41.42;12.57;;;1.90;99.90;;;;;;4932505;28;20069;-81
2022/12/06 04:11:49;;;;;;;28.90;11.30;;;1.80;99.90;;;;;;4973487;28;20041;-81
2022/12/06 04:14:15;;;;;;;63.90;12.88;;;1.90;99.90;;;;;;4949240;28;21852;-81
2022/12/06 04:19:25;;;;;;;21.70;10.63;;;1.80;99.90;;;;;;4975879;28;20042;-82
2022/12/06 04:24:35;;;;;;;46.95;11.98;;;2.00;99.90;;;;;;4946295;28;20530;-81
2022/12/06 04:40:41;;;;;;;38.15;12.00;;;1.90;99.90;;;;;;4983738;28;20525;-81
2022/12/06 04:45:55;;;;;;;133.73;19.13;;;2.00;99.90;;;;;;4987240;28;20035;-81
2022/12/06 04:48:21;;;;;;;50.40;12.57;;;2.00;99.90;;;;;;4992503;28;20395;-80
2022/12/06 04:50:48;;;;;;;41.55;13.40;;;2.00;99.90;;;;;;4944816;28;20109;-81
2022/12/06 04:53:13;;;;;;;85.30;14.88;;;2.00;99.90;;;;;;4975055;28;20150;-81
2022/12/06 04:55:39;;;;;;;44.08;12.90;;;2.00;99.90;;;;;;4976745;28;20110;-80
2022/12/06 04:58:04;;;;;;;56.90;15.95;;;2.00;99.90;;;;;;4963159;28;20028;-81
2022/12/06 05:00:30;;;;;;;21.15;9.45;;;2.00;99.90;;;;;;4971774;28;20038;-81
2022/12/06 05:02:56;;;;;;;78.40;15.68;;;2.10;99.90;;;;;;4967686;28;20475;-81
2022/12/06 05:05:21;;;;;;;282.55;23.42;;;2.10;99.90;;;;;;4985811;28;20030;-81
2022/12/06 05:07:47;;;;;;;102.57;18.33;;;2.00;99.90;;;;;;4935144;28;20123;-80
2022/12/06 05:10:12;;;;;;;21.13;10.68;;;2.00;99.90;;;;;;4973242;28;20047;-80
2022/12/06 05:12:38;;;;;;;26.73;11.98;;;2.10;99.90;;;;;;4950615;28;20118;-81
2022/12/06 05:15:04;;;;;;;105.68;19.33;;;2.10;99.90;;;;;;5002067;28;20048;-81
2022/12/06 05:17:29;;;;;;;20.00;10.15;;;2.10;99.90;;;;;;4944521;28;20031;-81
2022/12/06 05:19:55;;;;;;;111.47;20.83;;;2.10;99.90;;;;;;4967095;28;20475;-80
2022/12/06 05:22:20;;;;;;;91.40;18.25;;;2.20;99.90;;;;;;4968223;28;20471;-81
2022/12/06 05:24:46;;;;;;;56.50;18.27;;;2.10;99.90;;;;;;4949517;28;20034;-81
2022/12/06 05:27:11;;;;;;;31.73;13.30;;;2.10;99.90;;;;;;4968568;28;20035;-81
2022/12/06 05:29:37;;;;;;;34.72;13.63;;;2.10;99.90;;;;;;4970897;28;20031;-81
2022/12/06 05:32:03;;;;;;;43.95;16.10;;;2.10;99.90;;;;;;4985570;28;20037;-81
2022/12/06 05:34:28;;;;;;;70.32;19.55;;;2.20;99.90;;;;;;4985728;28;20810;-80
2022/12/06 05:36:54;;;;;;;129.35;20.83;;;2.20;99.90;;;;;;4964615;28;20027;-81
2022/12/06 05:39:19;;;;;;;111.03;23.20;;;2.20;99.90;;;;;;4939743;28;20086;-81
2022/12/06 05:41:47;;;;;;;108.88;19.50;;;2.20;99.90;;;;;;4930264;28;20043;-81
2022/12/06 05:44:12;;;;;;;76.07;17.73;;;2.10;99.90;;;;;;4963279;28;20035;-81
2022/12/06 05:46:38;;;;;;;38.13;13.27;;;2.20;99.90;;;;;;4986665;28;20368;-81
2022/12/06 05:49:04;;;;;;;44.28;13.25;;;2.20;99.90;;;;;;4953776;28;20035;-80
2022/12/06 05:51:29;;;;;;;32.35;12.15;;;2.30;99.90;;;;;;4947990;28;20034;-81
2022/12/06 05:53:55;;;;;;;52.78;13.07;;;2.30;99.90;;;;;;4962423;28;20105;-82
2022/12/06 05:56:20;;;;;;;84.78;19.38;;;2.30;99.90;;;;;;4964563;28;20034;-80
2022/12/06 05:58:46;;;;;;;95.22;17.15;;;2.30;99.90;;;;;;4931095;28;20093;-81
2022/12/06 06:01:11;;;;;;;52.83;15.80;;;2.20;99.90;;;;;;4983923;28;20027;-80
2022/12/06 06:03:37;;;;;;;95.75;16.63;;;2.30;99.90;;;;;;4943126;28;20487;-80
2022/12/06 06:06:03;;;;;;;106.75;21.52;;;2.30;99.90;;;;;;4933823;28;20049;-80
2022/12/06 06:08:28;;;;;;;80.43;19.67;;;2.30;99.90;;;;;;4963398;28;20484;-80
2022/12/06 06:10:54;;;;;;;42.55;15.73;;;2.30;99.90;;;;;;4961824;28;20031;-80
2022/12/06 06:13:20;;;;;;;72.68;20.58;;;2.30;99.90;;;;;;4929734;28;20059;-80
2022/12/06 06:15:47;;;;;;;120.45;23.95;;;2.30;99.90;;;;;;4961600;28;20027;-80
2022/12/06 06:18:14;;;;;;;57.88;21.33;;;2.40;99.90;;;;;;4962229;28;20038;-80
2022/12/06 06:20:40;;;;;;;20.30;10.90;;;2.40;99.90;;;;;;4952336;28;20085;-80
2022/12/06 06:23:06;;;;;;;82.43;21.77;;;2.30;99.90;;;;;;4971197;28;20023;-80
2022/12/06 06:25:31;;;;;;;62.95;15.20;;;2.40;99.90;;;;;;4933269;28;20054;-80
2022/12/06 06:27:57;;;;;;;73.22;21.77;;;2.40;99.90;;;;;;4963599;28;20501;-80
2022/12/06 06:30:23;;;;;;;49.75;18.17;;;2.40;99.90;;;;;;4963774;28;20019;-81
2022/12/06 06:32:48;;;;;;;143.80;23.10;;;2.40;99.90;;;;;;4933436;28;20027;-81
2022/12/06 06:35:14;;;;;;;37.85;14.68;;;2.50;99.90;;;;;;4948915;28;20038;-81
2022/12/06 06:37:39;;;;;;;99.95;20.67;;;2.40;99.90;;;;;;4969022;28;20035;-81
2022/12/06 06:40:06;;;;;;;33.13;15.13;;;2.40;99.90;;;;;;4959170;28;20031;-81
2022/12/06 06:42:31;;;;;;;29.77;13.73;;;2.40;99.90;;;;;;4932307;28;20058;-81
2022/12/06 06:44:57;;;;;;;51.97;21.77;;;2.40;99.90;;;;;;4935948;28;20089;-81
2022/12/06 06:47:22;;;;;;;68.38;18.45;;;2.50;99.90;;;;;;4957045;28;20040;-81
2022/12/06 06:49:48;;;;;;;30.20;14.55;;;2.50;99.90;;;;;;4949374;28;20027;-81
2022/12/06 06:52:14;;;;;;;59.30;19.77;;;2.50;99.90;;;;;;4936150;28;20045;-81
2022/12/06 06:54:39;;;;;;;56.58;21.42;;;2.50;99.90;;;;;;4958879;28;20102;-81
2022/12/06 06:57:07;;;;;;;24.83;12.70;;;2.50;99.90;;;;;;4962939;28;20043;-81
2022/12/06 06:59:32;;;;;;;44.53;21.35;;;2.50;99.90;;;;;;4987864;28;20046;-80
2022/12/06 07:01:58;;;;;;;48.33;18.70;;;2.60;99.90;;;;;;4950536;28;20031;-81
2022/12/06 07:04:24;;;;;;;39.38;18.27;;;2.60;99.90;;;;;;4946306;28;20045;-81
2022/12/06 07:06:50;;;;;;;28.65;14.43;;;2.60;99.90;;;;;;4933524;28;20059;-81
2022/12/06 07:09:16;;;;;;;48.20;19.23;;;2.50;99.90;;;;;;4963030;28;20038;-80
2022/12/06 07:11:44;;;;;;;37.75;17.00;;;2.60;99.90;;;;;;4983936;28;20035;-80
2022/12/06 07:14:10;;;;;;;40.83;17.00;;;2.60;99.90;;;;;;4964786;28;20035;-80
2022/12/06 07:16:36;;;;;;;34.20;15.95;;;2.60;99.90;;;;;;4944282;28;20042;-80
2022/12/06 07:19:02;;;;;;;34.55;16.88;;;2.60;99.90;;;;;;4946910;28;20050;-80
2022/12/06 07:21:28;;;;;;;60.20;17.23;;;2.70;99.90;;;;;;4944165;28;20046;-81
2022/12/06 07:23:53;;;;;;;20.92;11.43;;;2.70;99.90;;;;;;4959840;28;20560;-81
2022/12/06 07:26:21;;;;;;;62.95;24.80;;;2.70;99.90;;;;;;4924805;28;20132;-81
2022/12/06 07:28:48;;;;;;;74.97;27.95;;;2.70;99.90;;;;;;4933006;28;20602;-81
2022/12/06 07:31:21;;;;;;;72.78;28.25;;;2.70;99.90;;;;;;4960749;28;20043;-80
2022/12/06 07:33:50;;;;;;;48.08;20.67;;;2.70;99.90;;;;;;4960326;28;20795;-80
2022/12/06 07:36:15;;;;;;;44.55;19.58;;;2.70;99.90;;;;;;4976117;28;20027;-80
2022/12/06 07:38:42;;;;;;;33.10;15.90;;;2.70;99.90;;;;;;4947037;28;20113;-80
2022/12/06 07:44:59;;;;;;;46.58;21.92;;;2.80;99.90;;;;;;4961078;28;20487;-80
2022/12/06 07:46:54;;;;;;;51.20;22.13;;;2.80;99.90;;;;;;4975894;28;20391;-81
2022/12/06 07:49:19;;;;;;;93.90;24.85;;;2.80;99.90;;;;;;4964655;28;20034;-80
2022/12/06 07:51:45;;;;;;;22.88;11.70;;;2.80;99.90;;;;;;4960823;28;20034;-80
2022/12/06 07:54:12;;;;;;;51.35;20.05;;;2.80;99.90;;;;;;4960329;28;20464;-81
2022/12/06 07:56:38;;;;;;;41.78;18.75;;;2.80;99.90;;;;;;4941170;28;20039;-81
2022/12/06 07:59:03;;;;;;;42.80;20.27;;;2.80;99.90;;;;;;4983945;28;20035;-81
2022/12/06 08:01:29;;;;;;;46.13;18.75;;;2.80;99.90;;;;;;4976362;28;20136;-80
2022/12/06 08:04:00;;;;;;;44.17;18.63;;;2.90;99.90;;;;;;4979229;28;20053;-81
2022/12/06 08:06:26;;;;;;;48.75;20.85;;;2.90;99.90;;;;;;5002447;28;20039;-81
2022/12/06 08:08:54;;;;;;;40.92;17.08;;;2.90;99.90;;;;;;4933615;28;20483;-81
2022/12/06 08:11:21;;;;;;;47.78;20.65;;;2.90;99.90;;;;;;4957347;28;20033;-81
2022/12/06 08:13:47;;;;;;;105.88;19.63;;;2.90;99.90;;;;;;4961413;28;20512;-81
2022/12/06 08:16:12;;;;;;;39.60;19.15;;;2.90;99.90;;;;;;4974275;28;20143;-82
2022/12/06 08:18:39;;;;;;;43.85;20.48;;;3.00;99.90;;;;;;4961500;28;20039;-81
2022/12/06 08:21:05;;;;;;;36.25;16.38;;;3.00;99.90;;;;;;4961513;28;20034;-81
2022/12/06 08:23:31;;;;;;;26.70;12.45;;;3.00;99.90;;;;;;4933648;28;20037;-81
2022/12/06 08:26:15;;;;;;;28.50;14.18;;;3.00;99.90;;;;;;4946018;28;20078;-81
2022/12/06 08:28:42;;;;;;;55.67;21.75;;;3.10;99.90;;;;;;4931738;28;20043;-81
2022/12/06 08:31:09;;;;;;;31.15;14.02;;;3.10;99.90;;;;;;4946394;28;20572;-81
2022/12/06 08:33:35;;;;;;;41.17;20.50;;;3.10;99.90;;;;;;4961636;28;20058;-81
2022/12/06 08:36:07;;;;;;;43.53;19.52;;;3.10;99.90;;;;;;4957688;28;20041;-81
2022/12/06 08:38:33;;;;;;;40.67;17.45;;;3.20;99.90;;;;;;4967082;28;20491;-81
2022/12/06 08:40:59;;;;;;;33.08;13.75;;;3.20;99.90;;;;;;4979117;28;20038;-81
2022/12/06 08:43:24;;;;;;;43.63;19.08;;;3.20;99.90;;;;;;4964083;28;20049;-81
2022/12/06 08:45:51;;;;;;;45.85;18.75;;;3.20;99.90;;;;;;4930014;28;20121;-81
2022/12/06 08:48:18;;;;;;;39.67;17.42;;;3.20;99.90;;;;;;4930986;28;20043;-81
2022/12/06 08:50:43;;;;;;;44.95;17.80;;;3.30;99.90;;;;;;4978779;28;20585;-81
2022/12/06 08:53:09;;;;;;;30.75;13.07;;;3.30;99.90;;;;;;4963330;28;20060;-81
2022/12/06 08:55:34;;;;;;;35.53;15.93;;;3.30;99.90;;;;;;4931419;28;20031;-81
2022/12/06 08:58:00;;;;;;;34.17;15.98;;;3.30;99.90;;;;;;4944835;28;20047;-81
2022/12/06 09:00:25;;;;;;;35.42;18.10;;;3.40;99.90;;;;;;4960679;28;20081;-80
2022/12/06 09:02:51;;;;;;;37.92;17.35;;;3.40;99.90;;;;;;4961462;28;20054;-81
2022/12/06 09:05:16;;;;;;;33.03;15.75;;;3.50;99.90;;;;;;4994673;28;20372;-81
2022/12/06 09:07:43;;;;;;;42.00;17.00;;;3.50;99.90;;;;;;4978107;28;20482;-81
2022/12/06 09:10:09;;;;;;;42.75;18.85;;;3.50;99.90;;;;;;4978093;28;20125;-81
2022/12/06 09:12:35;;;;;;;47.75;18.77;;;3.60;99.90;;;;;;4930054;28;20440;-81
2022/12/06 09:15:00;;;;;;;44.85;17.85;;;3.60;99.90;;;;;;4973727;28;20042;-81
2022/12/06 09:17:26;;;;;;;40.92;17.45;;;3.70;99.90;;;;;;4961077;28;20031;-81
2022/12/06 09:19:51;;;;;;;42.00;19.30;;;3.70;99.90;;;;;;4932074;28;20085;-81
2022/12/06 09:22:17;;;;;;;48.72;19.85;;;3.70;99.90;;;;;;4934853;28;20858;-81
2022/12/06 09:24:42;;;;;;;49.35;19.38;;;3.80;99.90;;;;;;4976975;28;20030;-81
2022/12/06 09:27:09;;;;;;;57.05;22.80;;;3.80;99.90;;;;;;4959603;28;20529;-81
2022/12/06 09:29:36;;;;;;;39.53;15.60;;;3.90;99.90;;;;;;4964186;28;20031;-81
2022/12/06 09:32:02;;;;;;;58.92;23.42;;;3.90;99.90;;;;;;4971267;28;20034;-81
2022/12/06 09:34:27;;;;;;;41.13;17.55;;;4.00;99.90;;;;;;4977244;28;20040;-80
2022/12/06 09:36:56;;;;;;;55.00;21.83;;;4.00;99.90;;;;;;4931842;28;20510;-81
2022/12/06 09:39:33;;;;;;;36.53;16.63;;;4.10;99.90;;;;;;4932271;28;20604;-81
2022/12/06 09:42:02;;;;;;;44.80;18.13;;;4.10;99.90;;;;;;4960294;28;20388;-81
2022/12/06 09:44:50;;;;;;;44.13;20.90;;;4.20;99.90;;;;;;4960541;28;20785;-80
2022/12/06 09:47:27;;;;;;;46.67;19.05;;;4.20;99.90;;;;;;4978230;28;20031;-81
2022/12/06 09:50:11;;;;;;;50.17;20.65;;;4.30;99.90;;;;;;4966919;28;20027;-80
2022/12/06 09:52:57;;;;;;;48.78;20.63;;;4.40;99.90;;;;;;4964160;28;20034;-80
2022/12/06 09:55:29;;;;;;;;;;;4.40;99.90;;;;;;4982420;28;20142;-81
2022/12/06 09:58:10;;;;;;;45.17;18.67;;;4.40;99.90;;;;;;4995977;28;20020;-80
2022/12/06 10:00:42;;;;;;;50.22;20.83;;;4.40;99.90;;;;;;4998603;28;20039;-80
2022/12/06 10:03:24;;;;;;;52.70;20.75;;;4.40;99.90;;;;;;4959867;28;20042;-81
2022/12/06 10:06:01;;;;;;;47.30;19.80;;;4.50;99.90;;;;;;4956539;28;20039;-80
2022/12/06 10:08:45;;;;;;;41.60;18.70;;;4.50;99.90;;;;;;4950774;28;20145;-81
2022/12/06 10:11:26;;;;;;;51.25;20.58;;;4.50;99.90;;;;;;4980606;28;20029;-80
2022/12/06 10:14:25;;;;;;;58.83;21.35;;;4.60;99.90;;;;;;4961228;28;20414;-81
2022/12/06 10:17:06;;;;;;;48.22;21.23;;;4.60;99.90;;;;;;4938737;28;20102;-80
2022/12/06 10:20:09;;;;;;;41.95;18.80;;;4.60;99.90;;;;;;4982062;28;20484;-80
2022/12/06 10:22:47;;;;;;;54.55;21.02;;;4.60;99.90;;;;;;4976400;28;20514;-80
2022/12/06 10:25:40;;;;;;;48.42;21.33;;;4.60;99.90;;;;;;4993335;28;20023;-81
2022/12/06 10:28:18;;;;;;;54.58;21.05;;;4.70;99.90;;;;;;4948981;28;20154;-81
2022/12/06 10:30:55;;;;;;;43.63;18.35;;;4.70;99.90;;;;;;4936228;28;20038;-81
2022/12/06 10:33:54;;;;;;;35.00;15.05;;;4.70;99.90;;;;;;4966455;28;20043;-80
2022/12/06 10:36:41;;;;;;;40.90;18.42;;;4.80;99.90;;;;;;4998813;28;20043;-80
2022/12/06 10:39:24;;;;;;;40.13;17.35;;;4.90;99.90;;;;;;4956852;28;20507;-81
2022/12/06 10:41:58;;;;;;;46.95;19.33;;;4.90;99.90;;;;;;4966076;28;20122;-81
2022/12/06 10:44:31;;;;;;;45.97;20.40;;;5.00;99.90;;;;;;4952869;28;20062;-81
2022/12/06 10:47:09;;;;;;;42.92;19.65;;;5.00;99.90;;;;;;4942692;28;20524;-81
2022/12/06 10:49:46;;;;;;;40.85;18.50;;;5.00;99.90;;;;;;4966798;28;20161;-80
2022/12/06 10:52:39;;;;;;;43.90;19.95;;;5.10;99.90;;;;;;4963921;28;20105;-81
2022/12/06 10:55:07;;;;;;;58.58;20.92;;;5.10;99.90;;;;;;4964241;28;20043;-81
2022/12/06 10:57:36;;;;;;;50.25;20.92;;;5.20;99.90;;;;;;4971141;28;20050;-81
2022/12/06 11:00:26;;;;;;;50.80;22.00;;;5.30;99.90;;;;;;4982733;28;20472;-80
2022/12/06 11:03:20;;;;;;;50.45;20.67;;;5.30;99.90;;;;;;4971214;28;20510;-81
2022/12/06 11:05:59;;;;;;;46.60;20.63;;;5.40;99.90;;;;;;4981040;28;20035;-80
2022/12/06 11:08:40;;;;;;;41.10;17.05;;;5.50;99.90;;;;;;4996207;28;20031;-80
2022/12/06 11:11:16;;;;;;;40.13;17.63;;;5.50;99.90;;;;;;4944388;28;20062;-81
2022/12/06 11:13:49;;;;;;;36.88;15.65;;;5.50;99.90;;;;;;4933115;28;20117;-80
2022/12/06 11:16:24;;;;;;;38.03;16.33;;;5.50;99.90;;;;;;4993476;28;20038;-81
2022/12/06 11:18:54;;;;;;;35.03;16.38;;;5.50;99.90;;;;;;4991569;28;20436;-80
2022/12/06 11:21:27;;;;;;;30.65;13.45;;;5.60;99.90;;;;;;4948569;28;20039;-81
2022/12/06 11:23:57;;;;;;;29.88;15.43;;;5.60;99.90;;;;;;4984338;28;20062;-81
2022/12/06 11:27:04;;;;;;;26.00;14.43;;;5.60;99.90;;;;;;4967945;28;20432;-81
2022/12/06 11:29:29;;;;;;;36.20;17.57;;;5.70;99.90;;;;;;4929660;28;20079;-81
2022/12/06 11:32:06;;;;;;;33.95;17.65;;;5.70;99.90;;;;;;4943389;28;20113;-81
2022/12/06 11:34:35;;;;;;;27.17;14.35;;;5.80;99.90;;;;;;4924741;28;20038;-81
2022/12/06 11:37:01;;;;;;;28.88;15.32;;;5.80;99.90;;;;;;4976127;28;20027;-81
2022/12/06 11:39:27;;;;;;;24.50;13.57;;;5.90;99.90;;;;;;4963049;28;20157;-81
2022/12/06 11:41:54;;;;;;;20.42;13.00;;;5.90;99.90;;;;;;4960975;28;20454;-81
2022/12/06 11:44:24;;;;;;;23.45;12.93;;;6.00;99.90;;;;;;4947587;28;20030;-81
2022/12/06 11:46:55;;;;;;;23.70;14.48;;;6.00;99.90;;;;;;4974873;28;20035;-81
2022/12/06 11:49:26;;;;;;;22.35;12.23;;;6.10;99.90;;;;;;4946764;28;20058;-81
2022/12/06 11:51:52;;;;;;;21.38;12.68;;;6.20;99.90;;;;;;4979032;28;20038;-81
2022/12/06 11:54:27;;;;;;;20.48;11.98;;;6.20;99.90;;;;;;4963258;28;20396;-81
2022/12/06 11:56:57;;;;;;;20.40;11.35;;;6.20;99.90;;;;;;5003133;28;20653;-81
2022/12/06 11:59:29;;;;;;;13.35;8.77;;;6.20;99.90;;;;;;4966035;28;20035;-81
2022/12/06 12:01:56;;;;;;;14.40;8.85;;;6.20;99.90;;;;;;4962631;28;20769;-80
2022/12/06 12:04:33;;;;;;;12.18;7.07;;;6.20;99.90;;;;;;4977016;28;20059;-80
2022/12/06 12:07:05;;;;;;;14.27;7.40;;;6.20;99.90;;;;;;4934038;28;20526;-82
2022/12/06 12:09:33;;;;;;;9.27;5.88;;;6.20;99.90;;;;;;4948906;28;20487;-81
2022/12/06 12:12:05;;;;;;;10.93;6.63;;;6.20;99.90;;;;;;4958399;28;20089;-81
2022/12/06 12:14:39;;;;;;;12.55;6.10;;;6.20;99.90;;;;;;4978661;28;20447;-81
2022/12/06 12:17:17;;;;;;;10.38;7.15;;;6.20;99.90;;;;;;4996565;28;20081;-80
2022/12/06 12:19:47;;;;;;;8.25;6.03;;;6.30;99.90;;;;;;4943781;28;20373;-81
2022/12/06 12:22:21;;;;;;;11.85;6.03;;;6.30;99.90;;;;;;4965709;28;20122;-80
2022/12/06 12:24:57;;;;;;;8.90;5.13;;;6.30;99.90;;;;;;4959092;28;20423;-80
2022/12/06 12:27:38;;;;;;;9.05;5.63;;;6.30;99.90;;;;;;4976709;28;20027;-81
2022/12/06 12:30:19;;;;;;;8.80;5.45;;;6.30;99.90;;;;;;4977367;28;20027;-81
2022/12/06 12:32:45;;;;;;;7.72;5.32;;;6.40;99.90;;;;;;4996000;28;20031;-81
2022/12/06 12:35:19;;;;;;;7.18;4.88;;;6.40;99.90;;;;;;4960482;28;20034;-80
2022/12/06 12:37:50;;;;;;;7.75;4.13;;;6.40;99.90;;;;;;4982663;28;20038;-81
2022/12/06 12:40:28;;;;;;;6.68;4.53;;;6.30;99.90;;;;;;4956602;28;20554;-80
2022/12/06 12:43:10;;;;;;;8.75;5.32;;;6.30;99.90;;;;;;4979126;28;20027;-80
2022/12/06 12:45:39;;;;;;;5.88;4.30;;;6.30;99.90;;;;;;4982205;28;20030;-81
2022/12/06 12:48:24;;;;;;;11.93;4.72;;;6.20;99.90;;;;;;4931131;28;20032;-81
2022/12/06 12:50:54;;;;;;;7.90;4.60;;;6.10;99.90;;;;;;4965349;28;20429;-81
2022/12/06 12:53:39;;;;;;;15.13;4.95;;;6.10;99.90;;;;;;4961911;28;20398;-80
2022/12/06 12:56:12;;;;;;;6.95;4.05;;;6.00;99.90;;;;;;4993631;28;20034;-81
2022/12/06 12:58:38;;;;;;;5.88;4.22;;;5.80;99.90;;;;;;4968028;28;20546;-80
2022/12/06 13:01:27;;;;;;;7.72;3.67;;;5.70;99.90;;;;;;4961717;28;20090;-81
2022/12/06 13:04:06;;;;;;;6.78;4.20;;;5.70;99.90;;;;;;4975298;28;20086;-81
2022/12/06 13:06:49;;;;;;;6.35;3.50;;;5.60;99.90;;;;;;4931052;28;20154;-81
2022/12/06 13:09:39;;;;;;;6.93;4.53;;;5.60;99.90;;;;;;4982671;28;20023;-81
2022/12/06 13:12:11;;;;;;;12.30;5.00;;;5.60;99.90;;;;;;4971832;28;20111;-81
2022/12/06 13:14:36;;;;;;;4.32;3.08;;;5.70;99.90;;;;;;4945400;28;20098;-81
2022/12/06 13:17:05;;;;;;;8.82;3.97;;;5.70;99.90;;;;;;4963208;28;20406;-80
2022/12/06 13:19:35;;;;;;;5.63;4.28;;;5.80;99.90;;;;;;4930978;28;20035;-80
2022/12/06 13:22:02;;;;;;;3.53;2.72;;;5.90;99.90;;;;;;4970156;28;20023;-80
2022/12/06 13:24:29;;;;;;;6.80;3.80;;;6.00;99.90;;;;;;4961139;28;20042;-81